sensor_id;sensor_type;location;lat;lon;timestamp;temperature;humidity
19813;DHT22;10066;48.108;11.448;2022-10-16T00:01:33;12.60;99.90
19813;DHT22;10066;48.108;11.448;2022-10-16T00:04:01;12.60;99.90
19813;DHT22;10066;48.108;11.448;2022-10-16T00:06:30;12.60;99.90
19813;DHT22;10066;48.108;11.448;2022-10-16T00:08:58;12.60;99.90
19813;DHT22;10066;48.108;11.448;2022-10-16T00:11:28;12.50;99.90
19813;DHT22;10066;48.108;11.448;2022-10-16T00:13:57;12.50;99.90
19813;DHT22;10066;48.108;11.448;2022-10-16T00:16:25;12.50;99.90
19813;DHT22;10066;48.108;11.448;2022-10-16T00:18:52;12.40;99.90
19813;DHT22;10066;48.108;11.448;2022-10-16T00:23:50;12.40;99.90
19813;DHT22;10066;48.108;11.448;2022-10-16T00:26:18;12.30;99.90
19813;DHT22;10066;48.108;11.448;2022-10-16T00:28:47;12.30;99.90
19813;DHT22;10066;48.108;11.448;2022-10-16T00:31:16;12.30;99.90
19813;DHT22;10066;48.108;11.448;2022-10-16T00:33:44;12.30;99.90
19813;DHT22;10066;48.108;11.448;2022-10-16T00:36:13;12.30;99.90
19813;DHT22;10066;48.108;11.448;2022-10-16T00:38:41;12.20;99.90
19813;DHT22;10066;48.108;11.448;2022-10-16T00:41:12;12.20;99.90
19813;DHT22;10066;48.108;11.448;2022-10-16T00:43:41;12.20;99.90
19813;DHT22;10066;48.108;11.448;2022-10-16T00:46:16;12.20;99.90
19813;DHT22;10066;48.108;11.448;2022-10-16T00:48:48;12.20;99.90
19813;DHT22;10066;48.108;11.448;2022-10-16T00:51:20;12.20;99.90
19813;DHT22;10066;48.108;11.448;2022-10-16T00:53:49;12.20;99.90
19813;DHT22;10066;48.108;11.448;2022-10-16T00:56:17;12.10;99.90
19813;DHT22;10066;48.108;11.448;2022-10-16T00:58:44;12.10;99.90
19813;DHT22;10066;48.108;11.448;2022-10-16T01:01:13;12.10;99.90
19813;DHT22;10066;48.108;11.448;2022-10-16T01:03:40;12.10;99.90
19813;DHT22;10066;48.108;11.448;2022-10-16T01:06:16;12.10;99.90
19813;DHT22;10066;48.108;11.448;2022-10-16T01:08:53;12.10;99.90
19813;DHT22;10066;48.108;11.448;2022-10-16T01:11:30;12.10;99.90
19813;DHT22;10066;48.108;11.448;2022-10-16T01:14:05;12.10;99.90
19813;DHT22;10066;48.108;11.448;2022-10-16T01:16:38;12.10;99.90
19813;DHT22;10066;48.108;11.448;2022-10-16T01:19:11;12.10;99.90
19813;DHT22;10066;48.108;11.448;2022-10-16T01:21:41;12.10;99.90
19813;DHT22;10066;48.108;11.448;2022-10-16T01:24:15;12.10;99.90
19813;DHT22;10066;48.108;11.448;2022-10-16T01:27:01;12.00;99.90
19813;DHT22;10066;48.108;11.448;2022-10-16T01:29:32;12.00;99.90
19813;DHT22;10066;48.108;11.448;2022-10-16T01:32:06;12.00;99.90
19813;DHT22;10066;48.108;11.448;2022-10-16T01:34:42;12.00;99.90
19813;DHT22;10066;48.108;11.448;2022-10-16T01:37:15;12.00;99.90
19813;DHT22;10066;48.108;11.448;2022-10-16T01:39:45;12.00;99.90
19813;DHT22;10066;48.108;11.448;2022-10-16T01:42:20;12.00;99.90
19813;DHT22;10066;48.108;11.448;2022-10-16T01:44:49;12.00;99.90
19813;DHT22;10066;48.108;11.448;2022-10-16T01:47:17;12.00;99.90
19813;DHT22;10066;48.108;11.448;2022-10-16T01:49:46;12.00;99.90
19813;DHT22;10066;48.108;11.448;2022-10-16T01:52:17;12.00;99.90
19813;DHT22;10066;48.108;11.448;2022-10-16T01:54:47;12.10;99.90
19813;DHT22;10066;48.108;11.448;2022-10-16T01:57:18;12.10;99.90
19813;DHT22;10066;48.108;11.448;2022-10-16T01:59:50;12.10;99.90
19813;DHT22;10066;48.108;11.448;2022-10-16T02:02:19;12.10;99.90
19813;DHT22;10066;48.108;11.448;2022-10-16T02:04:51;12.10;99.90
19813;DHT22;10066;48.108;11.448;2022-10-16T02:07:20;12.10;99.90
19813;DHT22;10066;48.108;11.448;2022-10-16T02:09:47;12.10;99.90
19813;DHT22;10066;48.108;11.448;2022-10-16T02:12:18;12.10;99.90
19813;DHT22;10066;48.108;11.448;2022-10-16T02:14:47;12.10;99.90
19813;DHT22;10066;48.108;11.448;2022-10-16T02:17:16;12.10;99.90
19813;DHT22;10066;48.108;11.448;2022-10-16T02:19:44;12.10;99.90
19813;DHT22;10066;48.108;11.448;2022-10-16T02:22:18;12.00;99.90
19813;DHT22;10066;48.108;11.448;2022-10-16T02:24:54;12.00;99.90
19813;DHT22;10066;48.108;11.448;2022-10-16T02:27:27;12.00;99.90
19813;DHT22;10066;48.108;11.448;2022-10-16T02:30:04;12.00;99.90
19813;DHT22;10066;48.108;11.448;2022-10-16T02:32:34;12.00;99.90
19813;DHT22;10066;48.108;11.448;2022-10-16T02:35:03;12.00;99.90
19813;DHT22;10066;48.108;11.448;2022-10-16T02:37:30;12.00;99.90
19813;DHT22;10066;48.108;11.448;2022-10-16T02:39:59;12.00;99.90
19813;DHT22;10066;48.108;11.448;2022-10-16T02:42:32;12.00;99.90
19813;DHT22;10066;48.108;11.448;2022-10-16T02:45:01;12.00;99.90
19813;DHT22;10066;48.108;11.448;2022-10-16T02:47:29;12.00;99.90
19813;DHT22;10066;48.108;11.448;2022-10-16T02:49:56;12.00;99.90
19813;DHT22;10066;48.108;11.448;2022-10-16T02:52:23;12.00;99.90
19813;DHT22;10066;48.108;11.448;2022-10-16T02:54:50;12.00;99.90
19813;DHT22;10066;48.108;11.448;2022-10-16T02:57:18;12.00;99.90
19813;DHT22;10066;48.108;11.448;2022-10-16T02:59:45;12.00;99.90
19813;DHT22;10066;48.108;11.448;2022-10-16T03:02:13;12.00;99.90
19813;DHT22;10066;48.108;11.448;2022-10-16T03:04:40;11.90;99.90
19813;DHT22;10066;48.108;11.448;2022-10-16T03:07:07;11.90;99.90
19813;DHT22;10066;48.108;11.448;2022-10-16T03:09:34;11.90;99.90
19813;DHT22;10066;48.108;11.448;2022-10-16T03:12:01;11.90;99.90
19813;DHT22;10066;48.108;11.448;2022-10-16T03:14:28;11.90;99.90
19813;DHT22;10066;48.108;11.448;2022-10-16T03:16:55;11.90;99.90
19813;DHT22;10066;48.108;11.448;2022-10-16T03:19:23;11.80;99.90
19813;DHT22;10066;48.108;11.448;2022-10-16T03:21:50;11.80;99.90
19813;DHT22;10066;48.108;11.448;2022-10-16T03:24:17;11.80;99.90
19813;DHT22;10066;48.108;11.448;2022-10-16T03:26:44;11.80;99.90
19813;DHT22;10066;48.108;11.448;2022-10-16T03:29:11;11.80;99.90
19813;DHT22;10066;48.108;11.448;2022-10-16T03:31:38;11.80;99.90
19813;DHT22;10066;48.108;11.448;2022-10-16T03:34:05;11.80;99.90
19813;DHT22;10066;48.108;11.448;2022-10-16T03:36:34;11.80;99.90
19813;DHT22;10066;48.108;11.448;2022-10-16T03:39:02;11.80;99.90
19813;DHT22;10066;48.108;11.448;2022-10-16T03:41:29;11.80;99.90
19813;DHT22;10066;48.108;11.448;2022-10-16T03:43:56;11.80;99.90
19813;DHT22;10066;48.108;11.448;2022-10-16T03:46:23;11.80;99.90
19813;DHT22;10066;48.108;11.448;2022-10-16T03:48:50;11.90;99.90
19813;DHT22;10066;48.108;11.448;2022-10-16T03:51:19;11.90;99.90
19813;DHT22;10066;48.108;11.448;2022-10-16T03:53:47;12.00;99.90
19813;DHT22;10066;48.108;11.448;2022-10-16T03:56:14;12.00;99.90
19813;DHT22;10066;48.108;11.448;2022-10-16T03:58:41;12.00;99.90
19813;DHT22;10066;48.108;11.448;2022-10-16T04:01:08;12.10;99.90
19813;DHT22;10066;48.108;11.448;2022-10-16T04:03:35;12.20;99.90
19813;DHT22;10066;48.108;11.448;2022-10-16T04:06:02;12.20;99.90
19813;DHT22;10066;48.108;11.448;2022-10-16T04:08:29;12.30;99.90
19813;DHT22;10066;48.108;11.448;2022-10-16T04:11:01;12.30;99.90
19813;DHT22;10066;48.108;11.448;2022-10-16T04:13:28;12.40;99.90
19813;DHT22;10066;48.108;11.448;2022-10-16T04:15:55;12.50;99.90
19813;DHT22;10066;48.108;11.448;2022-10-16T04:18:22;12.60;99.90
19813;DHT22;10066;48.108;11.448;2022-10-16T04:20:49;12.60;99.90
19813;DHT22;10066;48.108;11.448;2022-10-16T04:23:16;12.70;99.90
19813;DHT22;10066;48.108;11.448;2022-10-16T04:25:43;12.80;99.90
19813;DHT22;10066;48.108;11.448;2022-10-16T04:28:12;12.80;99.90
19813;DHT22;10066;48.108;11.448;2022-10-16T04:30:39;12.90;99.90
19813;DHT22;10066;48.108;11.448;2022-10-16T04:33:07;12.90;99.90
19813;DHT22;10066;48.108;11.448;2022-10-16T04:35:35;12.90;99.90
19813;DHT22;10066;48.108;11.448;2022-10-16T04:38:02;12.90;99.90
19813;DHT22;10066;48.108;11.448;2022-10-16T04:40:29;12.90;99.90
19813;DHT22;10066;48.108;11.448;2022-10-16T04:42:58;13.00;99.90
19813;DHT22;10066;48.108;11.448;2022-10-16T04:45:26;13.00;99.90
19813;DHT22;10066;48.108;11.448;2022-10-16T04:47:56;13.00;99.90
19813;DHT22;10066;48.108;11.448;2022-10-16T04:50:24;13.10;99.90
19813;DHT22;10066;48.108;11.448;2022-10-16T04:52:51;13.00;99.90
19813;DHT22;10066;48.108;11.448;2022-10-16T04:55:17;13.00;99.90
19813;DHT22;10066;48.108;11.448;2022-10-16T04:57:44;13.10;99.90
19813;DHT22;10066;48.108;11.448;2022-10-16T05:00:12;13.10;99.90
19813;DHT22;10066;48.108;11.448;2022-10-16T05:02:40;13.10;99.90
19813;DHT22;10066;48.108;11.448;2022-10-16T05:05:08;13.20;99.90
19813;DHT22;10066;48.108;11.448;2022-10-16T05:07:35;13.20;99.90
19813;DHT22;10066;48.108;11.448;2022-10-16T05:10:02;13.20;99.90
19813;DHT22;10066;48.108;11.448;2022-10-16T05:12:29;13.20;99.90
19813;DHT22;10066;48.108;11.448;2022-10-16T05:14:56;13.20;99.90
19813;DHT22;10066;48.108;11.448;2022-10-16T05:17:24;13.20;99.90
19813;DHT22;10066;48.108;11.448;2022-10-16T05:19:52;13.30;99.90
19813;DHT22;10066;48.108;11.448;2022-10-16T05:22:19;13.30;99.90
19813;DHT22;10066;48.108;11.448;2022-10-16T05:24:47;13.30;99.90
19813;DHT22;10066;48.108;11.448;2022-10-16T05:27:14;13.40;99.90
19813;DHT22;10066;48.108;11.448;2022-10-16T05:29:44;13.40;99.90
19813;DHT22;10066;48.108;11.448;2022-10-16T05:32:12;13.40;99.90
19813;DHT22;10066;48.108;11.448;2022-10-16T05:34:39;13.40;99.90
19813;DHT22;10066;48.108;11.448;2022-10-16T05:37:08;13.40;99.90
19813;DHT22;10066;48.108;11.448;2022-10-16T05:39:36;13.50;99.90
19813;DHT22;10066;48.108;11.448;2022-10-16T05:42:03;13.40;99.90
19813;DHT22;10066;48.108;11.448;2022-10-16T05:44:30;13.50;99.90
19813;DHT22;10066;48.108;11.448;2022-10-16T05:46:58;13.50;99.90
19813;DHT22;10066;48.108;11.448;2022-10-16T05:49:25;13.50;99.90
19813;DHT22;10066;48.108;11.448;2022-10-16T05:51:52;13.50;99.90
19813;DHT22;10066;48.108;11.448;2022-10-16T05:54:22;13.50;99.90
19813;DHT22;10066;48.108;11.448;2022-10-16T05:56:49;13.50;99.90
19813;DHT22;10066;48.108;11.448;2022-10-16T05:59:16;13.60;99.90
19813;DHT22;10066;48.108;11.448;2022-10-16T06:01:43;13.50;99.90
19813;DHT22;10066;48.108;11.448;2022-10-16T06:04:11;13.50;99.90
19813;DHT22;10066;48.108;11.448;2022-10-16T06:06:38;13.50;99.90
19813;DHT22;10066;48.108;11.448;2022-10-16T06:09:05;13.40;99.90
19813;DHT22;10066;48.108;11.448;2022-10-16T06:11:34;13.40;99.90
19813;DHT22;10066;48.108;11.448;2022-10-16T06:14:01;13.30;99.90
19813;DHT22;10066;48.108;11.448;2022-10-16T06:16:33;13.20;99.90
19813;DHT22;10066;48.108;11.448;2022-10-16T06:19:00;13.20;99.90
19813;DHT22;10066;48.108;11.448;2022-10-16T06:21:28;13.10;99.90
19813;DHT22;10066;48.108;11.448;2022-10-16T06:23:56;13.10;99.90
19813;DHT22;10066;48.108;11.448;2022-10-16T06:26:25;13.10;99.90
19813;DHT22;10066;48.108;11.448;2022-10-16T06:28:55;13.10;99.90
19813;DHT22;10066;48.108;11.448;2022-10-16T06:31:23;13.10;99.90
19813;DHT22;10066;48.108;11.448;2022-10-16T06:33:53;13.10;99.90
19813;DHT22;10066;48.108;11.448;2022-10-16T06:36:21;13.10;99.90
19813;DHT22;10066;48.108;11.448;2022-10-16T06:38:48;13.00;99.90
19813;DHT22;10066;48.108;11.448;2022-10-16T06:41:18;13.10;99.90
19813;DHT22;10066;48.108;11.448;2022-10-16T06:43:45;13.10;99.90
19813;DHT22;10066;48.108;11.448;2022-10-16T06:46:15;13.20;99.90
19813;DHT22;10066;48.108;11.448;2022-10-16T06:48:43;13.20;99.90
19813;DHT22;10066;48.108;11.448;2022-10-16T06:51:11;13.20;99.90
19813;DHT22;10066;48.108;11.448;2022-10-16T06:53:40;13.30;99.90
19813;DHT22;10066;48.108;11.448;2022-10-16T06:56:09;13.30;99.90
19813;DHT22;10066;48.108;11.448;2022-10-16T06:58:36;13.30;99.90
19813;DHT22;10066;48.108;11.448;2022-10-16T07:01:04;13.30;99.90
19813;DHT22;10066;48.108;11.448;2022-10-16T07:03:33;13.40;99.90
19813;DHT22;10066;48.108;11.448;2022-10-16T07:06:02;13.30;99.90
19813;DHT22;10066;48.108;11.448;2022-10-16T07:08:31;13.30;99.90
19813;DHT22;10066;48.108;11.448;2022-10-16T07:11:00;13.40;99.90
19813;DHT22;10066;48.108;11.448;2022-10-16T07:13:27;13.40;99.90
19813;DHT22;10066;48.108;11.448;2022-10-16T07:15:54;13.40;99.90
19813;DHT22;10066;48.108;11.448;2022-10-16T07:18:21;13.50;99.90
19813;DHT22;10066;48.108;11.448;2022-10-16T07:20:53;13.50;99.90
19813;DHT22;10066;48.108;11.448;2022-10-16T07:23:29;13.50;99.90
19813;DHT22;10066;48.108;11.448;2022-10-16T07:25:56;13.60;99.90
19813;DHT22;10066;48.108;11.448;2022-10-16T07:28:23;13.60;99.90
19813;DHT22;10066;48.108;11.448;2022-10-16T07:30:50;13.70;99.90
19813;DHT22;10066;48.108;11.448;2022-10-16T07:33:17;13.80;99.90
19813;DHT22;10066;48.108;11.448;2022-10-16T07:35:48;13.90;99.90
19813;DHT22;10066;48.108;11.448;2022-10-16T07:38:17;14.10;99.90
19813;DHT22;10066;48.108;11.448;2022-10-16T07:40:45;14.20;99.90
19813;DHT22;10066;48.108;11.448;2022-10-16T07:43:12;14.40;99.90
19813;DHT22;10066;48.108;11.448;2022-10-16T07:45:46;14.50;99.90
19813;DHT22;10066;48.108;11.448;2022-10-16T07:48:14;14.70;99.90
19813;DHT22;10066;48.108;11.448;2022-10-16T07:50:41;14.80;99.90
19813;DHT22;10066;48.108;11.448;2022-10-16T07:53:08;14.90;99.90
19813;DHT22;10066;48.108;11.448;2022-10-16T07:55:37;15.10;99.90
19813;DHT22;10066;48.108;11.448;2022-10-16T07:58:05;15.20;99.90
19813;DHT22;10066;48.108;11.448;2022-10-16T08:00:33;15.40;99.90
19813;DHT22;10066;48.108;11.448;2022-10-16T08:03:01;15.50;99.90
19813;DHT22;10066;48.108;11.448;2022-10-16T08:05:29;15.60;99.90
19813;DHT22;10066;48.108;11.448;2022-10-16T08:07:56;15.60;99.90
19813;DHT22;10066;48.108;11.448;2022-10-16T08:10:25;15.70;99.90
19813;DHT22;10066;48.108;11.448;2022-10-16T08:12:54;15.80;99.90
19813;DHT22;10066;48.108;11.448;2022-10-16T08:15:21;15.90;99.90
19813;DHT22;10066;48.108;11.448;2022-10-16T08:17:55;16.10;99.90
19813;DHT22;10066;48.108;11.448;2022-10-16T08:20:22;16.20;99.90
19813;DHT22;10066;48.108;11.448;2022-10-16T08:22:49;16.30;99.90
19813;DHT22;10066;48.108;11.448;2022-10-16T08:25:16;16.50;99.90
19813;DHT22;10066;48.108;11.448;2022-10-16T08:27:43;16.60;99.90
19813;DHT22;10066;48.108;11.448;2022-10-16T08:30:12;16.70;99.90
19813;DHT22;10066;48.108;11.448;2022-10-16T08:32:40;16.90;99.90
19813;DHT22;10066;48.108;11.448;2022-10-16T08:35:08;17.10;99.90
19813;DHT22;10066;48.108;11.448;2022-10-16T08:37:36;17.30;99.90
19813;DHT22;10066;48.108;11.448;2022-10-16T08:40:04;17.40;99.90
19813;DHT22;10066;48.108;11.448;2022-10-16T08:42:43;17.70;99.90
19813;DHT22;10066;48.108;11.448;2022-10-16T08:45:33;17.70;99.90
19813;DHT22;10066;48.108;11.448;2022-10-16T08:48:09;17.90;99.90
19813;DHT22;10066;48.108;11.448;2022-10-16T08:50:41;18.10;99.90
19813;DHT22;10066;48.108;11.448;2022-10-16T08:53:15;18.20;99.90
19813;DHT22;10066;48.108;11.448;2022-10-16T08:55:46;18.30;99.90
19813;DHT22;10066;48.108;11.448;2022-10-16T08:58:18;18.50;99.90
19813;DHT22;10066;48.108;11.448;2022-10-16T09:00:48;18.60;99.90
19813;DHT22;10066;48.108;11.448;2022-10-16T09:03:28;18.70;99.90
19813;DHT22;10066;48.108;11.448;2022-10-16T09:06:09;18.90;99.90
19813;DHT22;10066;48.108;11.448;2022-10-16T09:11:14;19.10;99.90
19813;DHT22;10066;48.108;11.448;2022-10-16T09:13:49;19.20;99.90
19813;DHT22;10066;48.108;11.448;2022-10-16T09:16:23;19.40;99.90
19813;DHT22;10066;48.108;11.448;2022-10-16T09:18:56;19.50;99.90
19813;DHT22;10066;48.108;11.448;2022-10-16T09:21:27;19.60;99.90
19813;DHT22;10066;48.108;11.448;2022-10-16T09:23:57;19.70;99.90
19813;DHT22;10066;48.108;11.448;2022-10-16T09:26:26;19.80;99.90
19813;DHT22;10066;48.108;11.448;2022-10-16T09:28:53;19.90;99.90
19813;DHT22;10066;48.108;11.448;2022-10-16T09:31:22;20.00;99.90
19813;DHT22;10066;48.108;11.448;2022-10-16T09:33:52;20.10;99.90
19813;DHT22;10066;48.108;11.448;2022-10-16T09:36:21;20.20;99.90
19813;DHT22;10066;48.108;11.448;2022-10-16T09:38:49;20.30;99.90
19813;DHT22;10066;48.108;11.448;2022-10-16T09:41:21;20.40;99.90
19813;DHT22;10066;48.108;11.448;2022-10-16T09:43:52;20.50;99.90
19813;DHT22;10066;48.108;11.448;2022-10-16T09:46:26;20.60;99.90
19813;DHT22;10066;48.108;11.448;2022-10-16T09:48:56;20.70;99.90
19813;DHT22;10066;48.108;11.448;2022-10-16T09:51:26;20.80;99.90
19813;DHT22;10066;48.108;11.448;2022-10-16T09:53:58;20.80;99.90
19813;DHT22;10066;48.108;11.448;2022-10-16T09:56:28;20.90;99.90
19813;DHT22;10066;48.108;11.448;2022-10-16T09:58:56;21.00;99.90
19813;DHT22;10066;48.108;11.448;2022-10-16T10:01:29;21.00;99.90
19813;DHT22;10066;48.108;11.448;2022-10-16T10:03:58;21.10;99.90
19813;DHT22;10066;48.108;11.448;2022-10-16T10:06:30;21.20;99.90
19813;DHT22;10066;48.108;11.448;2022-10-16T10:09:02;21.20;99.90
19813;DHT22;10066;48.108;11.448;2022-10-16T10:11:41;21.30;99.90
19813;DHT22;10066;48.108;11.448;2022-10-16T10:14:16;21.40;99.90
19813;DHT22;10066;48.108;11.448;2022-10-16T10:16:46;21.40;99.90
19813;DHT22;10066;48.108;11.448;2022-10-16T10:19:15;21.50;99.90
19813;DHT22;10066;48.108;11.448;2022-10-16T10:21:42;21.50;99.90
19813;DHT22;10066;48.108;11.448;2022-10-16T10:24:11;21.60;99.90
19813;DHT22;10066;48.108;11.448;2022-10-16T10:26:40;21.60;99.90
19813;DHT22;10066;48.108;11.448;2022-10-16T10:29:13;21.70;99.90
19813;DHT22;10066;48.108;11.448;2022-10-16T10:31:51;21.70;99.90
19813;DHT22;10066;48.108;11.448;2022-10-16T10:34:35;21.80;99.90
19813;DHT22;10066;48.108;11.448;2022-10-16T10:37:12;21.90;99.90
19813;DHT22;10066;48.108;11.448;2022-10-16T10:39:45;21.90;99.90
19813;DHT22;10066;48.108;11.448;2022-10-16T10:42:19;21.90;99.90
19813;DHT22;10066;48.108;11.448;2022-10-16T10:45:02;22.00;99.90
19813;DHT22;10066;48.108;11.448;2022-10-16T10:47:41;22.00;99.90
19813;DHT22;10066;48.108;11.448;2022-10-16T10:50:16;22.10;99.90
19813;DHT22;10066;48.108;11.448;2022-10-16T10:52:54;22.10;99.90
19813;DHT22;10066;48.108;11.448;2022-10-16T10:55:31;22.20;99.90
19813;DHT22;10066;48.108;11.448;2022-10-16T10:58:21;22.20;99.90
19813;DHT22;10066;48.108;11.448;2022-10-16T11:00:56;22.30;99.90
19813;DHT22;10066;48.108;11.448;2022-10-16T11:03:40;22.30;99.90
19813;DHT22;10066;48.108;11.448;2022-10-16T11:06:12;22.40;99.90
19813;DHT22;10066;48.108;11.448;2022-10-16T11:08:46;22.40;99.90
19813;DHT22;10066;48.108;11.448;2022-10-16T11:11:18;22.50;99.90
19813;DHT22;10066;48.108;11.448;2022-10-16T11:13:54;22.50;99.90
19813;DHT22;10066;48.108;11.448;2022-10-16T11:16:26;22.60;99.90
19813;DHT22;10066;48.108;11.448;2022-10-16T11:18:59;22.60;99.90
19813;DHT22;10066;48.108;11.448;2022-10-16T11:21:33;22.70;99.90
19813;DHT22;10066;48.108;11.448;2022-10-16T11:24:09;22.70;99.90
19813;DHT22;10066;48.108;11.448;2022-10-16T11:26:41;22.80;99.90
19813;DHT22;10066;48.108;11.448;2022-10-16T11:29:13;22.80;99.90
19813;DHT22;10066;48.108;11.448;2022-10-16T11:31:46;22.80;99.90
19813;DHT22;10066;48.108;11.448;2022-10-16T11:34:22;22.80;99.90
19813;DHT22;10066;48.108;11.448;2022-10-16T11:36:51;22.90;99.90
19813;DHT22;10066;48.108;11.448;2022-10-16T11:39:21;22.90;99.90
19813;DHT22;10066;48.108;11.448;2022-10-16T11:41:52;22.90;99.90
19813;DHT22;10066;48.108;11.448;2022-10-16T11:44:36;23.00;99.90
19813;DHT22;10066;48.108;11.448;2022-10-16T11:47:19;23.00;99.90
19813;DHT22;10066;48.108;11.448;2022-10-16T11:49:53;23.10;99.90
19813;DHT22;10066;48.108;11.448;2022-10-16T11:52:25;23.10;99.90
19813;DHT22;10066;48.108;11.448;2022-10-16T11:54:57;23.10;99.90
19813;DHT22;10066;48.108;11.448;2022-10-16T11:57:29;23.10;99.90
19813;DHT22;10066;48.108;11.448;2022-10-16T12:00:01;23.20;99.90
19813;DHT22;10066;48.108;11.448;2022-10-16T12:02:37;23.20;99.90
19813;DHT22;10066;48.108;11.448;2022-10-16T12:05:15;23.20;98.50
19813;DHT22;10066;48.108;11.448;2022-10-16T12:07:51;23.30;96.60
19813;DHT22;10066;48.108;11.448;2022-10-16T12:10:21;23.30;98.30
19813;DHT22;10066;48.108;11.448;2022-10-16T12:12:48;23.30;98.30
19813;DHT22;10066;48.108;11.448;2022-10-16T12:15:22;23.30;98.60
19813;DHT22;10066;48.108;11.448;2022-10-16T12:17:50;23.30;98.10
19813;DHT22;10066;48.108;11.448;2022-10-16T12:20:34;23.30;98.40
19813;DHT22;10066;48.108;11.448;2022-10-16T12:23:05;23.40;94.00
19813;DHT22;10066;48.108;11.448;2022-10-16T12:25:34;23.50;96.20
19813;DHT22;10066;48.108;11.448;2022-10-16T12:28:04;23.50;95.80
19813;DHT22;10066;48.108;11.448;2022-10-16T12:30:34;23.50;94.20
19813;DHT22;10066;48.108;11.448;2022-10-16T12:33:03;23.50;95.40
19813;DHT22;10066;48.108;11.448;2022-10-16T12:35:33;23.50;96.00
19813;DHT22;10066;48.108;11.448;2022-10-16T12:38:20;23.50;95.00
19813;DHT22;10066;48.108;11.448;2022-10-16T12:40:56;23.40;94.80
19813;DHT22;10066;48.108;11.448;2022-10-16T12:43:39;23.40;95.20
19813;DHT22;10066;48.108;11.448;2022-10-16T12:46:23;23.40;93.70
19813;DHT22;10066;48.108;11.448;2022-10-16T12:48:51;23.40;93.40
19813;DHT22;10066;48.108;11.448;2022-10-16T12:51:25;23.40;94.70
19813;DHT22;10066;48.108;11.448;2022-10-16T12:54:04;23.40;92.30
19813;DHT22;10066;48.108;11.448;2022-10-16T12:56:45;23.40;94.40
19813;DHT22;10066;48.108;11.448;2022-10-16T12:59:23;23.40;93.30
19813;DHT22;10066;48.108;11.448;2022-10-16T13:04:55;23.40;90.30
19813;DHT22;10066;48.108;11.448;2022-10-16T13:07:46;23.40;92.10
19813;DHT22;10066;48.108;11.448;2022-10-16T13:10:22;23.50;93.10
19813;DHT22;10066;48.108;11.448;2022-10-16T13:13:20;23.50;93.90
19813;DHT22;10066;48.108;11.448;2022-10-16T13:15:57;23.40;91.60
19813;DHT22;10066;48.108;11.448;2022-10-16T13:18:33;23.40;93.60
19813;DHT22;10066;48.108;11.448;2022-10-16T13:21:15;23.40;94.60
19813;DHT22;10066;48.108;11.448;2022-10-16T13:23:51;23.40;94.40
19813;DHT22;10066;48.108;11.448;2022-10-16T13:26:31;23.40;94.30
19813;DHT22;10066;48.108;11.448;2022-10-16T13:29:03;23.40;93.50
19813;DHT22;10066;48.108;11.448;2022-10-16T13:31:31;23.40;94.10
19813;DHT22;10066;48.108;11.448;2022-10-16T13:34:00;23.40;92.60
19813;DHT22;10066;48.108;11.448;2022-10-16T13:36:30;23.40;93.40
19813;DHT22;10066;48.108;11.448;2022-10-16T13:39:12;23.40;93.80
19813;DHT22;10066;48.108;11.448;2022-10-16T13:41:41;23.40;92.60
19813;DHT22;10066;48.108;11.448;2022-10-16T13:44:14;23.40;93.30
19813;DHT22;10066;48.108;11.448;2022-10-16T13:46:42;23.40;92.50
19813;DHT22;10066;48.108;11.448;2022-10-16T13:49:15;23.40;93.20
19813;DHT22;10066;48.108;11.448;2022-10-16T13:51:54;23.40;91.70
19813;DHT22;10066;48.108;11.448;2022-10-16T13:54:21;23.40;91.60
19813;DHT22;10066;48.108;11.448;2022-10-16T13:56:50;23.40;93.10
19813;DHT22;10066;48.108;11.448;2022-10-16T13:59:24;23.40;93.00
19813;DHT22;10066;48.108;11.448;2022-10-16T14:01:53;23.30;92.40
19813;DHT22;10066;48.108;11.448;2022-10-16T14:04:21;23.30;93.20
19813;DHT22;10066;48.108;11.448;2022-10-16T14:06:50;23.30;93.70
19813;DHT22;10066;48.108;11.448;2022-10-16T14:09:22;23.20;93.80
19813;DHT22;10066;48.108;11.448;2022-10-16T14:11:55;23.20;92.90
19813;DHT22;10066;48.108;11.448;2022-10-16T14:14:23;23.20;93.20
19813;DHT22;10066;48.108;11.448;2022-10-16T14:16:51;23.20;92.50
19813;DHT22;10066;48.108;11.448;2022-10-16T14:19:21;23.20;91.70
19813;DHT22;10066;48.108;11.448;2022-10-16T14:21:49;23.30;92.70
19813;DHT22;10066;48.108;11.448;2022-10-16T14:24:25;23.30;92.00
19813;DHT22;10066;48.108;11.448;2022-10-16T14:26:54;23.30;88.80
19813;DHT22;10066;48.108;11.448;2022-10-16T14:29:23;23.30;91.30
19813;DHT22;10066;48.108;11.448;2022-10-16T14:31:55;23.30;91.60
19813;DHT22;10066;48.108;11.448;2022-10-16T14:34:28;23.30;90.60
19813;DHT22;10066;48.108;11.448;2022-10-16T14:36:56;23.30;89.90
19813;DHT22;10066;48.108;11.448;2022-10-16T14:39:25;23.20;91.00
19813;DHT22;10066;48.108;11.448;2022-10-16T14:41:56;23.20;91.40
19813;DHT22;10066;48.108;11.448;2022-10-16T14:44:28;23.20;91.40
19813;DHT22;10066;48.108;11.448;2022-10-16T14:46:57;23.20;90.40
19813;DHT22;10066;48.108;11.448;2022-10-16T14:49:25;23.10;91.40
19813;DHT22;10066;48.108;11.448;2022-10-16T14:51:53;23.10;91.10
19813;DHT22;10066;48.108;11.448;2022-10-16T14:54:21;23.10;90.90
19813;DHT22;10066;48.108;11.448;2022-10-16T14:56:50;23.10;90.70
19813;DHT22;10066;48.108;11.448;2022-10-16T14:59:23;23.10;90.50
19813;DHT22;10066;48.108;11.448;2022-10-16T15:01:52;23.00;90.00
19813;DHT22;10066;48.108;11.448;2022-10-16T15:04:19;22.90;91.30
19813;DHT22;10066;48.108;11.448;2022-10-16T15:06:46;22.90;91.10
19813;DHT22;10066;48.108;11.448;2022-10-16T15:09:13;22.90;90.70
19813;DHT22;10066;48.108;11.448;2022-10-16T15:11:41;22.80;91.10
19813;DHT22;10066;48.108;11.448;2022-10-16T15:14:11;22.80;91.30
19813;DHT22;10066;48.108;11.448;2022-10-16T15:16:40;22.70;90.10
19813;DHT22;10066;48.108;11.448;2022-10-16T15:19:07;22.60;90.70
19813;DHT22;10066;48.108;11.448;2022-10-16T15:21:34;22.60;91.80
19813;DHT22;10066;48.108;11.448;2022-10-16T15:24:01;22.50;92.20
19813;DHT22;10066;48.108;11.448;2022-10-16T15:26:29;22.40;92.40
19813;DHT22;10066;48.108;11.448;2022-10-16T15:28:57;22.40;93.00
19813;DHT22;10066;48.108;11.448;2022-10-16T15:31:24;22.30;93.60
19813;DHT22;10066;48.108;11.448;2022-10-16T15:33:53;22.30;94.10
19813;DHT22;10066;48.108;11.448;2022-10-16T15:36:27;22.20;94.40
19813;DHT22;10066;48.108;11.448;2022-10-16T15:38:55;22.10;94.50
19813;DHT22;10066;48.108;11.448;2022-10-16T15:41:23;22.00;95.30
19813;DHT22;10066;48.108;11.448;2022-10-16T15:43:50;21.90;95.70